HS Bizet — A8MI3 — position and weather

sailwx.info

Track history (hours):
 
Tides and Currents Weather Stations Pressure Air Temp Water Temp Dewpoint Dewpoint Depression Visibility Wind Speed Wind Dir Waves Ship Positions

HS Bizet

Last reported at 2014-Oct-21 03:33 UTC. Time now 2014-Oct-21 03:52 UTC.
Position N 35°26' W 121°55'.

Length 246 m; draft 9.2 m.

Type: Ship (hazmat cat A). MMSI: 636091349.

Date/timePositionNaut miles runAvg speedWind from/ knotsBaromVisibWave heightAir tempDewpointWater temp
2014-Oct-21 03:33N 35°26' W 121°55'1211.5
2014-Oct-21 02:32N 35°35' W 122°04'1111.3
2014-Oct-21 01:33N 35°44' W 122°12'1111.0
2014-Oct-21 00:33N 35°53' W 122°19'1111.2
2014-Oct-20 23:33N 36°03' W 122°27'1111.3
2014-Oct-20 22:33N 36°13' W 122°33'1111.2
2014-Oct-20 21:33N 36°23' W 122°39'5 4.5
2014-Oct-20 20:26N 36°28' W 122°42'910.6
2014-Oct-20 19:33N 36°36' W 122°47'1211.7
2014-Oct-20 18:32N 36°47' W 122°53'1311.8
2014-Oct-20 17:27N 36°58' W 122°60'1511.6
2014-Oct-20 16:08N 37°12' W 122°50'811.8
2014-Oct-20 15:28N 37°18' W 122°44'1111.5
2014-Oct-20 14:28N 37°29' W 122°43'1011.4
2014-Oct-20 13:33N 37°40' W 122°43'9 9.0
2014-Oct-20 12:33N 37°47' W 122°36'1212.1
2014-Oct-20 11:33N 37°48' W 122°21'1 1.0
2014-Oct-20 10:33N 37°49' W 122°19'0 0.0
2014-Oct-20 09:33N 37°49' W 122°19'0 0.0
2014-Oct-20 08:33N 37°49' W 122°19'0 0.0
2014-Oct-20 07:33N 37°49' W 122°19'0 0.0
2014-Oct-20 06:33N 37°49' W 122°19'0 0.0
2014-Oct-20 05:33N 37°49' W 122°19'0 0.0
2014-Oct-20 04:33N 37°49' W 122°19'0 0.0
2014-Oct-20 03:30N 37°49' W 122°19'0 0.0
2014-Oct-20 02:33N 37°49' W 122°19'0 0.0
2014-Oct-20 01:33N 37°49' W 122°19'0 0.0
2014-Oct-20 00:33N 37°49' W 122°19'0 0.0
2014-Oct-19 23:33N 37°49' W 122°19'0 0.0
2014-Oct-19 22:33N 37°49' W 122°19'0 0.0
2014-Oct-19 21:33N 37°49' W 122°19'0 0.0
2014-Oct-19 20:33N 37°49' W 122°19'0 0.0
2014-Oct-19 19:33N 37°49' W 122°19'0 0.0
2014-Oct-19 18:33N 37°49' W 122°19'0 0.0
2014-Oct-19 17:33N 37°49' W 122°19'0 0.0
2014-Oct-19 16:33N 37°49' W 122°19'0 0.0
2014-Oct-19 15:33N 37°49' W 122°19'0 0.0
2014-Oct-19 14:33N 37°49' W 122°19'0 0.2
2014-Oct-19 13:33N 37°49' W 122°20'8 8.3
2014-Oct-19 12:33N 37°48' W 122°30'8 8.2
2014-Oct-19 11:33N 37°45' W 122°40'1211.9
2014-Oct-19 10:34N 37°38' W 122°51'1515.0
2014-Oct-19 09:33N 37°29' W 123°07'8 6.6
2014-Oct-19 08:25N 37°23' W 123°13'  
Track history (hours):
 
Tides and Currents Weather Stations Pressure Air Temp Water Temp Dewpoint Dewpoint Depression Visibility Wind Speed Wind Dir Waves Ship Positions

HS Bizet

Last reported at 2014-Oct-21 03:33 UTC. Time now 2014-Oct-21 03:52 UTC.
Position N 35°26' W 121°55'.

Length 246 m; draft 9.2 m.

Type: Ship (hazmat cat A). MMSI: 636091349.

Date/timePositionNaut miles runAvg speedWind from/ knotsBaromVisibWave heightAir tempDewpointWater temp
2014-Oct-21 03:33N 35°26' W 121°55'1211.5
2014-Oct-21 02:32N 35°35' W 122°04'1111.3
2014-Oct-21 01:33N 35°44' W 122°12'1111.0
2014-Oct-21 00:33N 35°53' W 122°19'1111.2
2014-Oct-20 23:33N 36°03' W 122°27'1111.3
2014-Oct-20 22:33N 36°13' W 122°33'1111.2
2014-Oct-20 21:33N 36°23' W 122°39'5 4.5
2014-Oct-20 20:26N 36°28' W 122°42'910.6
2014-Oct-20 19:33N 36°36' W 122°47'1211.7
2014-Oct-20 18:32N 36°47' W 122°53'1311.8
2014-Oct-20 17:27N 36°58' W 122°60'1511.6
2014-Oct-20 16:08N 37°12' W 122°50'811.8
2014-Oct-20 15:28N 37°18' W 122°44'1111.5
2014-Oct-20 14:28N 37°29' W 122°43'1011.4
2014-Oct-20 13:33N 37°40' W 122°43'9 9.0
2014-Oct-20 12:33N 37°47' W 122°36'1212.1
2014-Oct-20 11:33N 37°48' W 122°21'1 1.0
2014-Oct-20 10:33N 37°49' W 122°19'0 0.0
2014-Oct-20 09:33N 37°49' W 122°19'0 0.0
2014-Oct-20 08:33N 37°49' W 122°19'0 0.0
2014-Oct-20 07:33N 37°49' W 122°19'0 0.0
2014-Oct-20 06:33N 37°49' W 122°19'0 0.0
2014-Oct-20 05:33N 37°49' W 122°19'0 0.0
2014-Oct-20 04:33N 37°49' W 122°19'0 0.0
2014-Oct-20 03:30N 37°49' W 122°19'0 0.0
2014-Oct-20 02:33N 37°49' W 122°19'0 0.0
2014-Oct-20 01:33N 37°49' W 122°19'0 0.0
2014-Oct-20 00:33N 37°49' W 122°19'0 0.0
2014-Oct-19 23:33N 37°49' W 122°19'0 0.0
2014-Oct-19 22:33N 37°49' W 122°19'0 0.0
2014-Oct-19 21:33N 37°49' W 122°19'0 0.0
2014-Oct-19 20:33N 37°49' W 122°19'0 0.0
2014-Oct-19 19:33N 37°49' W 122°19'0 0.0
2014-Oct-19 18:33N 37°49' W 122°19'0 0.0
2014-Oct-19 17:33N 37°49' W 122°19'0 0.0
2014-Oct-19 16:33N 37°49' W 122°19'0 0.0
2014-Oct-19 15:33N 37°49' W 122°19'0 0.0
2014-Oct-19 14:33N 37°49' W 122°19'0 0.2
2014-Oct-19 13:33N 37°49' W 122°20'8 8.3
2014-Oct-19 12:33N 37°48' W 122°30'8 8.2
2014-Oct-19 11:33N 37°45' W 122°40'1211.9
2014-Oct-19 10:34N 37°38' W 122°51'1515.0
2014-Oct-19 09:33N 37°29' W 123°07'8 6.6
2014-Oct-19 08:25N 37°23' W 123°13'  

Dump ship's entire track history